sensor_id;sensor_type;location;lat;lon;timestamp;P1;durP1;ratioP1;P2;durP2;ratioP2
2548;SDS011;1284;53.520;10.248;2023-08-31T00:02:19;3.13;;;2.08;;
2548;SDS011;1284;53.520;10.248;2023-08-31T00:04:45;5.80;;;2.22;;
2548;SDS011;1284;53.520;10.248;2023-08-31T00:07:10;4.63;;;2.22;;
2548;SDS011;1284;53.520;10.248;2023-08-31T00:09:36;3.50;;;2.08;;
2548;SDS011;1284;53.520;10.248;2023-08-31T00:12:02;4.50;;;2.40;;
2548;SDS011;1284;53.520;10.248;2023-08-31T00:14:28;4.65;;;2.13;;
2548;SDS011;1284;53.520;10.248;2023-08-31T00:16:53;4.50;;;1.90;;
2548;SDS011;1284;53.520;10.248;2023-08-31T00:19:19;4.80;;;2.47;;
2548;SDS011;1284;53.520;10.248;2023-08-31T00:21:44;4.15;;;2.17;;
2548;SDS011;1284;53.520;10.248;2023-08-31T00:24:10;3.00;;;1.63;;
2548;SDS011;1284;53.520;10.248;2023-08-31T00:26:36;4.38;;;2.08;;
2548;SDS011;1284;53.520;10.248;2023-08-31T00:29:08;5.53;;;2.60;;
2548;SDS011;1284;53.520;10.248;2023-08-31T00:31:37;3.72;;;2.17;;
2548;SDS011;1284;53.520;10.248;2023-08-31T00:34:03;3.47;;;1.95;;
2548;SDS011;1284;53.520;10.248;2023-08-31T00:36:29;6.05;;;2.90;;
2548;SDS011;1284;53.520;10.248;2023-08-31T00:39:02;2.67;;;1.63;;
2548;SDS011;1284;53.520;10.248;2023-08-31T00:41:30;3.67;;;1.60;;
2548;SDS011;1284;53.520;10.248;2023-08-31T00:43:56;5.97;;;2.22;;
2548;SDS011;1284;53.520;10.248;2023-08-31T00:46:21;2.63;;;2.03;;
2548;SDS011;1284;53.520;10.248;2023-08-31T00:48:47;3.42;;;1.88;;
2548;SDS011;1284;53.520;10.248;2023-08-31T00:51:12;5.35;;;1.77;;
2548;SDS011;1284;53.520;10.248;2023-08-31T00:53:42;2.85;;;1.85;;
2548;SDS011;1284;53.520;10.248;2023-08-31T00:56:08;4.43;;;2.40;;
2548;SDS011;1284;53.520;10.248;2023-08-31T00:58:33;4.03;;;2.05;;
2548;SDS011;1284;53.520;10.248;2023-08-31T01:01:11;3.10;;;1.75;;
2548;SDS011;1284;53.520;10.248;2023-08-31T01:11:45;3.17;;;1.95;;
2548;SDS011;1284;53.520;10.248;2023-08-31T01:14:31;2.97;;;1.83;;
2548;SDS011;1284;53.520;10.248;2023-08-31T01:16:59;5.57;;;2.15;;
2548;SDS011;1284;53.520;10.248;2023-08-31T01:22:07;2.75;;;1.83;;
2548;SDS011;1284;53.520;10.248;2023-08-31T01:27:02;2.80;;;1.83;;
2548;SDS011;1284;53.520;10.248;2023-08-31T01:29:29;3.72;;;2.33;;
2548;SDS011;1284;53.520;10.248;2023-08-31T01:31:55;4.95;;;1.90;;
2548;SDS011;1284;53.520;10.248;2023-08-31T01:34:20;3.70;;;2.10;;
2548;SDS011;1284;53.520;10.248;2023-08-31T01:36:46;3.60;;;2.00;;
2548;SDS011;1284;53.520;10.248;2023-08-31T01:39:22;4.57;;;2.00;;
2548;SDS011;1284;53.520;10.248;2023-08-31T01:41:54;6.63;;;2.03;;
2548;SDS011;1284;53.520;10.248;2023-08-31T01:44:22;3.75;;;1.67;;
2548;SDS011;1284;53.520;10.248;2023-08-31T01:46:51;3.00;;;1.90;;
2548;SDS011;1284;53.520;10.248;2023-08-31T01:49:22;4.55;;;2.00;;
2548;SDS011;1284;53.520;10.248;2023-08-31T01:51:49;2.42;;;1.48;;
2548;SDS011;1284;53.520;10.248;2023-08-31T01:54:14;3.17;;;2.05;;
2548;SDS011;1284;53.520;10.248;2023-08-31T01:56:40;5.28;;;2.30;;
2548;SDS011;1284;53.520;10.248;2023-08-31T01:59:05;3.97;;;1.90;;
2548;SDS011;1284;53.520;10.248;2023-08-31T02:01:34;3.72;;;2.00;;
2548;SDS011;1284;53.520;10.248;2023-08-31T02:04:01;3.05;;;1.65;;
2548;SDS011;1284;53.520;10.248;2023-08-31T02:06:26;4.15;;;2.20;;
2548;SDS011;1284;53.520;10.248;2023-08-31T02:08:52;4.35;;;2.45;;
2548;SDS011;1284;53.520;10.248;2023-08-31T02:11:17;3.60;;;1.60;;
2548;SDS011;1284;53.520;10.248;2023-08-31T02:13:43;3.40;;;1.88;;
2548;SDS011;1284;53.520;10.248;2023-08-31T02:16:08;2.08;;;1.45;;
2548;SDS011;1284;53.520;10.248;2023-08-31T02:18:35;3.28;;;2.08;;
2548;SDS011;1284;53.520;10.248;2023-08-31T02:21:00;2.65;;;1.90;;
2548;SDS011;1284;53.520;10.248;2023-08-31T02:23:25;2.72;;;1.65;;
2548;SDS011;1284;53.520;10.248;2023-08-31T02:25:51;1.92;;;1.40;;
2548;SDS011;1284;53.520;10.248;2023-08-31T02:28:16;4.75;;;1.60;;
2548;SDS011;1284;53.520;10.248;2023-08-31T02:30:45;2.50;;;1.48;;
2548;SDS011;1284;53.520;10.248;2023-08-31T02:33:11;2.67;;;1.52;;
2548;SDS011;1284;53.520;10.248;2023-08-31T02:35:38;3.15;;;1.52;;
2548;SDS011;1284;53.520;10.248;2023-08-31T02:38:03;2.03;;;1.38;;
2548;SDS011;1284;53.520;10.248;2023-08-31T02:40:29;1.77;;;1.48;;
2548;SDS011;1284;53.520;10.248;2023-08-31T02:42:54;3.05;;;1.65;;
2548;SDS011;1284;53.520;10.248;2023-08-31T02:45:20;2.53;;;1.60;;
2548;SDS011;1284;53.520;10.248;2023-08-31T02:47:45;2.92;;;1.38;;
2548;SDS011;1284;53.520;10.248;2023-08-31T02:50:11;3.22;;;1.70;;
2548;SDS011;1284;53.520;10.248;2023-08-31T02:52:36;2.95;;;1.52;;
2548;SDS011;1284;53.520;10.248;2023-08-31T02:55:02;3.40;;;1.52;;
2548;SDS011;1284;53.520;10.248;2023-08-31T02:57:27;3.00;;;1.73;;
2548;SDS011;1284;53.520;10.248;2023-08-31T02:59:53;2.97;;;1.73;;
2548;SDS011;1284;53.520;10.248;2023-08-31T03:02:21;1.83;;;1.42;;
2548;SDS011;1284;53.520;10.248;2023-08-31T03:04:47;2.90;;;1.73;;
2548;SDS011;1284;53.520;10.248;2023-08-31T03:07:12;2.30;;;1.50;;
2548;SDS011;1284;53.520;10.248;2023-08-31T03:09:58;3.53;;;1.88;;
2548;SDS011;1284;53.520;10.248;2023-08-31T03:12:23;3.55;;;1.58;;
2548;SDS011;1284;53.520;10.248;2023-08-31T03:14:49;2.78;;;1.25;;
2548;SDS011;1284;53.520;10.248;2023-08-31T03:17:16;2.20;;;1.27;;
2548;SDS011;1284;53.520;10.248;2023-08-31T03:19:42;3.50;;;2.08;;
2548;SDS011;1284;53.520;10.248;2023-08-31T03:22:07;2.03;;;1.42;;
2548;SDS011;1284;53.520;10.248;2023-08-31T03:24:33;3.08;;;1.60;;
2548;SDS011;1284;53.520;10.248;2023-08-31T03:26:58;3.55;;;1.65;;
2548;SDS011;1284;53.520;10.248;2023-08-31T03:29:25;4.65;;;1.50;;
2548;SDS011;1284;53.520;10.248;2023-08-31T03:31:51;2.83;;;1.77;;
2548;SDS011;1284;53.520;10.248;2023-08-31T03:34:17;2.80;;;1.38;;
2548;SDS011;1284;53.520;10.248;2023-08-31T03:36:43;3.08;;;1.23;;
2548;SDS011;1284;53.520;10.248;2023-08-31T03:39:08;5.05;;;1.40;;
2548;SDS011;1284;53.520;10.248;2023-08-31T03:41:35;1.40;;;1.13;;
2548;SDS011;1284;53.520;10.248;2023-08-31T03:44:01;3.28;;;1.23;;
2548;SDS011;1284;53.520;10.248;2023-08-31T03:46:26;1.85;;;1.23;;
2548;SDS011;1284;53.520;10.248;2023-08-31T03:48:52;1.73;;;1.10;;
2548;SDS011;1284;53.520;10.248;2023-08-31T03:51:18;3.38;;;1.90;;
2548;SDS011;1284;53.520;10.248;2023-08-31T03:53:44;2.42;;;1.30;;
2548;SDS011;1284;53.520;10.248;2023-08-31T03:56:10;8.93;;;1.80;;
2548;SDS011;1284;53.520;10.248;2023-08-31T03:58:36;2.55;;;1.58;;
2548;SDS011;1284;53.520;10.248;2023-08-31T04:01:02;3.60;;;1.77;;
2548;SDS011;1284;53.520;10.248;2023-08-31T04:03:29;3.03;;;1.63;;
2548;SDS011;1284;53.520;10.248;2023-08-31T04:05:55;1.67;;;1.58;;
2548;SDS011;1284;53.520;10.248;2023-08-31T04:08:23;3.22;;;1.42;;
2548;SDS011;1284;53.520;10.248;2023-08-31T04:10:49;2.13;;;1.25;;
2548;SDS011;1284;53.520;10.248;2023-08-31T04:13:14;3.63;;;1.52;;
2548;SDS011;1284;53.520;10.248;2023-08-31T04:15:40;1.85;;;1.40;;
2548;SDS011;1284;53.520;10.248;2023-08-31T04:18:05;2.88;;;1.65;;
2548;SDS011;1284;53.520;10.248;2023-08-31T04:20:32;2.10;;;1.20;;
2548;SDS011;1284;53.520;10.248;2023-08-31T04:22:58;1.67;;;1.30;;
2548;SDS011;1284;53.520;10.248;2023-08-31T04:25:23;3.17;;;1.25;;
2548;SDS011;1284;53.520;10.248;2023-08-31T04:27:49;1.33;;;1.10;;
2548;SDS011;1284;53.520;10.248;2023-08-31T04:30:14;1.55;;;0.95;;
2548;SDS011;1284;53.520;10.248;2023-08-31T04:32:40;5.25;;;1.05;;
2548;SDS011;1284;53.520;10.248;2023-08-31T04:35:06;4.50;;;1.40;;
2548;SDS011;1284;53.520;10.248;2023-08-31T04:37:32;5.35;;;1.52;;
2548;SDS011;1284;53.520;10.248;2023-08-31T04:39:58;1.77;;;1.02;;
2548;SDS011;1284;53.520;10.248;2023-08-31T04:42:24;1.00;;;0.73;;
2548;SDS011;1284;53.520;10.248;2023-08-31T04:44:49;1.30;;;0.93;;
2548;SDS011;1284;53.520;10.248;2023-08-31T04:47:15;1.90;;;1.10;;
2548;SDS011;1284;53.520;10.248;2023-08-31T04:49:41;2.95;;;1.48;;
2548;SDS011;1284;53.520;10.248;2023-08-31T04:52:06;2.70;;;1.67;;
2548;SDS011;1284;53.520;10.248;2023-08-31T04:54:32;2.90;;;1.30;;
2548;SDS011;1284;53.520;10.248;2023-08-31T04:56:57;2.65;;;1.45;;
2548;SDS011;1284;53.520;10.248;2023-08-31T04:59:22;1.73;;;1.17;;
2548;SDS011;1284;53.520;10.248;2023-08-31T05:01:48;3.42;;;1.55;;
2548;SDS011;1284;53.520;10.248;2023-08-31T05:04:13;4.65;;;1.25;;
2548;SDS011;1284;53.520;10.248;2023-08-31T05:06:39;1.75;;;1.20;;
2548;SDS011;1284;53.520;10.248;2023-08-31T05:09:04;1.27;;;1.02;;
2548;SDS011;1284;53.520;10.248;2023-08-31T05:11:31;1.13;;;1.02;;
2548;SDS011;1284;53.520;10.248;2023-08-31T05:13:56;1.40;;;1.10;;
2548;SDS011;1284;53.520;10.248;2023-08-31T05:16:22;1.52;;;1.30;;
2548;SDS011;1284;53.520;10.248;2023-08-31T05:18:48;1.48;;;1.00;;
2548;SDS011;1284;53.520;10.248;2023-08-31T05:21:16;2.75;;;1.58;;
2548;SDS011;1284;53.520;10.248;2023-08-31T05:23:42;1.27;;;1.05;;
2548;SDS011;1284;53.520;10.248;2023-08-31T05:26:07;2.33;;;1.13;;
2548;SDS011;1284;53.520;10.248;2023-08-31T05:28:33;2.70;;;1.10;;
2548;SDS011;1284;53.520;10.248;2023-08-31T05:30:59;1.48;;;0.93;;
2548;SDS011;1284;53.520;10.248;2023-08-31T05:33:26;4.97;;;1.08;;
2548;SDS011;1284;53.520;10.248;2023-08-31T05:35:53;2.38;;;1.10;;
2548;SDS011;1284;53.520;10.248;2023-08-31T05:38:20;1.20;;;0.85;;
2548;SDS011;1284;53.520;10.248;2023-08-31T05:40:46;0.82;;;0.68;;
2548;SDS011;1284;53.520;10.248;2023-08-31T05:43:12;1.67;;;1.33;;
2548;SDS011;1284;53.520;10.248;2023-08-31T05:45:41;2.38;;;1.35;;
2548;SDS011;1284;53.520;10.248;2023-08-31T05:48:07;1.58;;;0.98;;
2548;SDS011;1284;53.520;10.248;2023-08-31T05:50:33;2.40;;;1.60;;
2548;SDS011;1284;53.520;10.248;2023-08-31T05:52:58;4.53;;;1.20;;
2548;SDS011;1284;53.520;10.248;2023-08-31T05:55:23;2.33;;;1.20;;
2548;SDS011;1284;53.520;10.248;2023-08-31T05:57:49;1.33;;;0.80;;
2548;SDS011;1284;53.520;10.248;2023-08-31T06:00:15;1.30;;;1.20;;
2548;SDS011;1284;53.520;10.248;2023-08-31T06:02:41;1.65;;;1.08;;
2548;SDS011;1284;53.520;10.248;2023-08-31T06:05:08;3.50;;;0.90;;
2548;SDS011;1284;53.520;10.248;2023-08-31T06:07:34;0.85;;;0.80;;
2548;SDS011;1284;53.520;10.248;2023-08-31T06:09:59;1.42;;;1.00;;
2548;SDS011;1284;53.520;10.248;2023-08-31T06:12:25;1.30;;;0.82;;
2548;SDS011;1284;53.520;10.248;2023-08-31T06:14:50;2.58;;;1.10;;
2548;SDS011;1284;53.520;10.248;2023-08-31T06:17:15;1.92;;;1.00;;
2548;SDS011;1284;53.520;10.248;2023-08-31T06:19:41;3.40;;;1.08;;
2548;SDS011;1284;53.520;10.248;2023-08-31T06:22:07;1.75;;;1.05;;
2548;SDS011;1284;53.520;10.248;2023-08-31T06:24:33;1.60;;;1.00;;
2548;SDS011;1284;53.520;10.248;2023-08-31T06:26:59;5.07;;;1.05;;
2548;SDS011;1284;53.520;10.248;2023-08-31T06:29:25;1.55;;;0.80;;
2548;SDS011;1284;53.520;10.248;2023-08-31T06:31:50;1.38;;;1.10;;
2548;SDS011;1284;53.520;10.248;2023-08-31T06:34:15;1.63;;;0.73;;
2548;SDS011;1284;53.520;10.248;2023-08-31T06:36:41;1.42;;;0.75;;
2548;SDS011;1284;53.520;10.248;2023-08-31T06:39:06;2.08;;;1.10;;
2548;SDS011;1284;53.520;10.248;2023-08-31T06:41:32;3.55;;;0.80;;
2548;SDS011;1284;53.520;10.248;2023-08-31T06:43:58;3.17;;;1.27;;
2548;SDS011;1284;53.520;10.248;2023-08-31T06:46:23;9.30;;;0.88;;
2548;SDS011;1284;53.520;10.248;2023-08-31T06:48:49;1.38;;;0.90;;
2548;SDS011;1284;53.520;10.248;2023-08-31T06:51:14;1.30;;;1.00;;
2548;SDS011;1284;53.520;10.248;2023-08-31T06:53:41;1.15;;;0.80;;
2548;SDS011;1284;53.520;10.248;2023-08-31T06:56:08;1.42;;;0.70;;
2548;SDS011;1284;53.520;10.248;2023-08-31T06:58:34;1.38;;;0.80;;
2548;SDS011;1284;53.520;10.248;2023-08-31T07:00:59;0.73;;;0.70;;
2548;SDS011;1284;53.520;10.248;2023-08-31T07:03:24;1.27;;;0.70;;
2548;SDS011;1284;53.520;10.248;2023-08-31T07:05:50;2.97;;;0.98;;
2548;SDS011;1284;53.520;10.248;2023-08-31T07:08:15;1.90;;;1.10;;
2548;SDS011;1284;53.520;10.248;2023-08-31T07:10:41;2.90;;;0.93;;
2548;SDS011;1284;53.520;10.248;2023-08-31T07:13:07;0.93;;;0.70;;
2548;SDS011;1284;53.520;10.248;2023-08-31T07:15:33;1.95;;;0.80;;
2548;SDS011;1284;53.520;10.248;2023-08-31T07:17:59;1.38;;;0.60;;
2548;SDS011;1284;53.520;10.248;2023-08-31T07:20:25;1.48;;;0.80;;
2548;SDS011;1284;53.520;10.248;2023-08-31T07:22:50;2.25;;;0.77;;
2548;SDS011;1284;53.520;10.248;2023-08-31T07:25:16;0.90;;;0.65;;
2548;SDS011;1284;53.520;10.248;2023-08-31T07:27:41;0.82;;;0.38;;
2548;SDS011;1284;53.520;10.248;2023-08-31T07:30:07;2.08;;;0.73;;
2548;SDS011;1284;53.520;10.248;2023-08-31T07:32:33;1.55;;;0.68;;
2548;SDS011;1284;53.520;10.248;2023-08-31T07:34:58;5.43;;;0.70;;
2548;SDS011;1284;53.520;10.248;2023-08-31T07:37:24;1.33;;;0.95;;
2548;SDS011;1284;53.520;10.248;2023-08-31T07:39:50;0.47;;;0.47;;
2548;SDS011;1284;53.520;10.248;2023-08-31T07:42:16;0.52;;;0.52;;
2548;SDS011;1284;53.520;10.248;2023-08-31T07:44:41;1.30;;;0.65;;
2548;SDS011;1284;53.520;10.248;2023-08-31T07:47:07;0.43;;;0.43;;
2548;SDS011;1284;53.520;10.248;2023-08-31T07:49:33;1.55;;;0.73;;
2548;SDS011;1284;53.520;10.248;2023-08-31T07:51:58;0.73;;;0.50;;
2548;SDS011;1284;53.520;10.248;2023-08-31T07:54:28;1.05;;;0.40;;
2548;SDS011;1284;53.520;10.248;2023-08-31T07:56:53;0.40;;;0.32;;
2548;SDS011;1284;53.520;10.248;2023-08-31T07:59:19;0.70;;;0.32;;
2548;SDS011;1284;53.520;10.248;2023-08-31T08:01:44;0.35;;;0.32;;
2548;SDS011;1284;53.520;10.248;2023-08-31T08:04:13;0.63;;;0.40;;
2548;SDS011;1284;53.520;10.248;2023-08-31T08:06:38;0.20;;;0.20;;
2548;SDS011;1284;53.520;10.248;2023-08-31T08:09:24;0.55;;;0.47;;
2548;SDS011;1284;53.520;10.248;2023-08-31T08:11:49;0.30;;;0.30;;
2548;SDS011;1284;53.520;10.248;2023-08-31T08:14:16;0.77;;;0.43;;
2548;SDS011;1284;53.520;10.248;2023-08-31T08:16:41;0.80;;;0.45;;
2548;SDS011;1284;53.520;10.248;2023-08-31T08:19:07;1.33;;;0.55;;
2548;SDS011;1284;53.520;10.248;2023-08-31T08:21:53;1.92;;;0.70;;
2548;SDS011;1284;53.520;10.248;2023-08-31T08:24:18;0.85;;;0.50;;
2548;SDS011;1284;53.520;10.248;2023-08-31T08:26:44;2.80;;;0.40;;
2548;SDS011;1284;53.520;10.248;2023-08-31T08:29:09;0.40;;;0.40;;
2548;SDS011;1284;53.520;10.248;2023-08-31T08:31:35;2.47;;;0.40;;
2548;SDS011;1284;53.520;10.248;2023-08-31T08:34:01;1.15;;;0.45;;
2548;SDS011;1284;53.520;10.248;2023-08-31T08:36:26;0.82;;;0.40;;
2548;SDS011;1284;53.520;10.248;2023-08-31T08:38:52;2.30;;;0.50;;
2548;SDS011;1284;53.520;10.248;2023-08-31T08:41:18;2.45;;;0.60;;
2548;SDS011;1284;53.520;10.248;2023-08-31T08:43:49;0.30;;;0.30;;
2548;SDS011;1284;53.520;10.248;2023-08-31T08:46:15;1.65;;;0.35;;
2548;SDS011;1284;53.520;10.248;2023-08-31T08:48:41;1.27;;;0.52;;
2548;SDS011;1284;53.520;10.248;2023-08-31T08:51:07;2.85;;;0.50;;
2548;SDS011;1284;53.520;10.248;2023-08-31T08:53:33;0.40;;;0.30;;
2548;SDS011;1284;53.520;10.248;2023-08-31T08:55:59;0.80;;;0.38;;
2548;SDS011;1284;53.520;10.248;2023-08-31T08:58:25;0.65;;;0.40;;
2548;SDS011;1284;53.520;10.248;2023-08-31T09:00:51;0.75;;;0.38;;
2548;SDS011;1284;53.520;10.248;2023-08-31T09:03:19;0.88;;;0.40;;
2548;SDS011;1284;53.520;10.248;2023-08-31T09:05:45;0.50;;;0.40;;
2548;SDS011;1284;53.520;10.248;2023-08-31T09:08:10;2.45;;;0.63;;
2548;SDS011;1284;53.520;10.248;2023-08-31T09:10:38;0.30;;;0.30;;
2548;SDS011;1284;53.520;10.248;2023-08-31T09:13:07;1.13;;;0.57;;
2548;SDS011;1284;53.520;10.248;2023-08-31T09:18:07;0.45;;;0.40;;
2548;SDS011;1284;53.520;10.248;2023-08-31T09:20:46;3.03;;;0.70;;
2548;SDS011;1284;53.520;10.248;2023-08-31T09:23:13;3.63;;;0.60;;
2548;SDS011;1284;53.520;10.248;2023-08-31T09:25:42;5.50;;;0.90;;
2548;SDS011;1284;53.520;10.248;2023-08-31T09:28:18;0.73;;;0.55;;
2548;SDS011;1284;53.520;10.248;2023-08-31T09:30:46;0.52;;;0.38;;
2548;SDS011;1284;53.520;10.248;2023-08-31T09:33:13;0.45;;;0.45;;
2548;SDS011;1284;53.520;10.248;2023-08-31T09:35:51;0.70;;;0.63;;
2548;SDS011;1284;53.520;10.248;2023-08-31T09:38:29;7.95;;;0.77;;
2548;SDS011;1284;53.520;10.248;2023-08-31T09:41:04;2.35;;;0.55;;
2548;SDS011;1284;53.520;10.248;2023-08-31T09:43:31;1.38;;;1.00;;
2548;SDS011;1284;53.520;10.248;2023-08-31T09:45:57;0.60;;;0.60;;
2548;SDS011;1284;53.520;10.248;2023-08-31T09:48:24;0.40;;;0.40;;
2548;SDS011;1284;53.520;10.248;2023-08-31T09:50:52;0.77;;;0.52;;
2548;SDS011;1284;53.520;10.248;2023-08-31T09:53:19;2.22;;;0.88;;
2548;SDS011;1284;53.520;10.248;2023-08-31T09:55:46;0.82;;;0.60;;
2548;SDS011;1284;53.520;10.248;2023-08-31T09:58:16;1.05;;;0.73;;
2548;SDS011;1284;53.520;10.248;2023-08-31T10:00:44;4.20;;;0.73;;
2548;SDS011;1284;53.520;10.248;2023-08-31T10:03:11;0.80;;;0.60;;
2548;SDS011;1284;53.520;10.248;2023-08-31T10:05:40;0.40;;;0.40;;
2548;SDS011;1284;53.520;10.248;2023-08-31T10:08:06;2.75;;;0.43;;
2548;SDS011;1284;53.520;10.248;2023-08-31T10:10:32;1.00;;;0.82;;
2548;SDS011;1284;53.520;10.248;2023-08-31T10:12:58;0.52;;;0.35;;
2548;SDS011;1284;53.520;10.248;2023-08-31T10:15:26;0.63;;;0.40;;
2548;SDS011;1284;53.520;10.248;2023-08-31T10:17:56;0.93;;;0.60;;
2548;SDS011;1284;53.520;10.248;2023-08-31T10:20:23;1.00;;;0.65;;
2548;SDS011;1284;53.520;10.248;2023-08-31T10:22:49;1.05;;;0.60;;
2548;SDS011;1284;53.520;10.248;2023-08-31T10:25:14;0.30;;;0.30;;
2548;SDS011;1284;53.520;10.248;2023-08-31T10:27:40;0.68;;;0.32;;
2548;SDS011;1284;53.520;10.248;2023-08-31T10:32:46;1.90;;;0.60;;
2548;SDS011;1284;53.520;10.248;2023-08-31T10:35:26;0.70;;;0.52;;
2548;SDS011;1284;53.520;10.248;2023-08-31T10:38:13;0.43;;;0.30;;
2548;SDS011;1284;53.520;10.248;2023-08-31T10:40:39;0.98;;;0.40;;
2548;SDS011;1284;53.520;10.248;2023-08-31T10:43:14;0.32;;;0.22;;
2548;SDS011;1284;53.520;10.248;2023-08-31T10:45:43;0.73;;;0.43;;
2548;SDS011;1284;53.520;10.248;2023-08-31T10:48:09;0.60;;;0.30;;
2548;SDS011;1284;53.520;10.248;2023-08-31T10:50:40;1.05;;;0.60;;
2548;SDS011;1284;53.520;10.248;2023-08-31T10:53:10;0.50;;;0.43;;
2548;SDS011;1284;53.520;10.248;2023-08-31T10:55:49;0.40;;;0.40;;
2548;SDS011;1284;53.520;10.248;2023-08-31T10:58:18;1.20;;;0.55;;
2548;SDS011;1284;53.520;10.248;2023-08-31T11:01:01;2.17;;;0.68;;
2548;SDS011;1284;53.520;10.248;2023-08-31T11:03:29;0.77;;;0.55;;
2548;SDS011;1284;53.520;10.248;2023-08-31T11:05:55;0.88;;;0.45;;
2548;SDS011;1284;53.520;10.248;2023-08-31T11:08:26;0.55;;;0.50;;
2548;SDS011;1284;53.520;10.248;2023-08-31T11:10:52;0.57;;;0.43;;
2548;SDS011;1284;53.520;10.248;2023-08-31T11:13:21;0.63;;;0.52;;
2548;SDS011;1284;53.520;10.248;2023-08-31T11:15:48;0.38;;;0.38;;
2548;SDS011;1284;53.520;10.248;2023-08-31T11:18:14;1.15;;;0.95;;
2548;SDS011;1284;53.520;10.248;2023-08-31T11:20:43;0.65;;;0.40;;
2548;SDS011;1284;53.520;10.248;2023-08-31T11:23:12;2.17;;;0.70;;
2548;SDS011;1284;53.520;10.248;2023-08-31T11:25:38;0.50;;;0.50;;
2548;SDS011;1284;53.520;10.248;2023-08-31T11:28:05;2.47;;;0.57;;
2548;SDS011;1284;53.520;10.248;2023-08-31T11:30:51;1.45;;;1.00;;
2548;SDS011;1284;53.520;10.248;2023-08-31T11:33:16;0.52;;;0.52;;
2548;SDS011;1284;53.520;10.248;2023-08-31T11:35:43;1.27;;;0.70;;
2548;SDS011;1284;53.520;10.248;2023-08-31T11:38:10;0.75;;;0.75;;
2548;SDS011;1284;53.520;10.248;2023-08-31T11:40:37;0.77;;;0.57;;
2548;SDS011;1284;53.520;10.248;2023-08-31T11:43:04;0.60;;;0.60;;
2548;SDS011;1284;53.520;10.248;2023-08-31T11:45:30;3.80;;;0.63;;
2548;SDS011;1284;53.520;10.248;2023-08-31T11:47:57;2.97;;;0.60;;
2548;SDS011;1284;53.520;10.248;2023-08-31T11:50:23;0.88;;;0.82;;
2548;SDS011;1284;53.520;10.248;2023-08-31T11:52:49;0.65;;;0.50;;
2548;SDS011;1284;53.520;10.248;2023-08-31T11:55:16;0.95;;;0.50;;
2548;SDS011;1284;53.520;10.248;2023-08-31T11:57:52;0.50;;;0.47;;
2548;SDS011;1284;53.520;10.248;2023-08-31T12:00:19;0.35;;;0.35;;
2548;SDS011;1284;53.520;10.248;2023-08-31T12:02:56;0.55;;;0.50;;
2548;SDS011;1284;53.520;10.248;2023-08-31T12:05:25;3.22;;;0.40;;
2548;SDS011;1284;53.520;10.248;2023-08-31T12:07:53;2.22;;;0.38;;
2548;SDS011;1284;53.520;10.248;2023-08-31T12:10:19;0.65;;;0.45;;
2548;SDS011;1284;53.520;10.248;2023-08-31T12:12:45;0.55;;;0.55;;
2548;SDS011;1284;53.520;10.248;2023-08-31T12:15:11;0.32;;;0.25;;
2548;SDS011;1284;53.520;10.248;2023-08-31T12:17:39;2.58;;;0.30;;
2548;SDS011;1284;53.520;10.248;2023-08-31T12:20:05;0.38;;;0.38;;
2548;SDS011;1284;53.520;10.248;2023-08-31T12:22:31;0.75;;;0.50;;
2548;SDS011;1284;53.520;10.248;2023-08-31T12:24:57;0.22;;;0.20;;
2548;SDS011;1284;53.520;10.248;2023-08-31T12:27:23;0.30;;;0.20;;
2548;SDS011;1284;53.520;10.248;2023-08-31T12:29:48;1.13;;;0.50;;
2548;SDS011;1284;53.520;10.248;2023-08-31T12:32:15;0.60;;;0.57;;
2548;SDS011;1284;53.520;10.248;2023-08-31T12:34:40;2.60;;;0.60;;
2548;SDS011;1284;53.520;10.248;2023-08-31T12:37:06;0.20;;;0.20;;
2548;SDS011;1284;53.520;10.248;2023-08-31T12:39:32;1.88;;;0.50;;
2548;SDS011;1284;53.520;10.248;2023-08-31T12:41:58;0.60;;;0.30;;
2548;SDS011;1284;53.520;10.248;2023-08-31T12:44:24;0.68;;;0.50;;
2548;SDS011;1284;53.520;10.248;2023-08-31T12:46:51;0.98;;;0.60;;
2548;SDS011;1284;53.520;10.248;2023-08-31T12:49:17;0.30;;;0.30;;
2548;SDS011;1284;53.520;10.248;2023-08-31T12:51:42;0.30;;;0.30;;
2548;SDS011;1284;53.520;10.248;2023-08-31T12:54:09;0.85;;;0.40;;
2548;SDS011;1284;53.520;10.248;2023-08-31T12:56:34;0.17;;;0.17;;
2548;SDS011;1284;53.520;10.248;2023-08-31T12:59:02;0.77;;;0.30;;
2548;SDS011;1284;53.520;10.248;2023-08-31T13:01:30;0.40;;;0.30;;
2548;SDS011;1284;53.520;10.248;2023-08-31T13:03:58;0.10;;;0.10;;
2548;SDS011;1284;53.520;10.248;2023-08-31T13:06:26;0.38;;;0.20;;
2548;SDS011;1284;53.520;10.248;2023-08-31T13:08:52;0.10;;;0.10;;
2548;SDS011;1284;53.520;10.248;2023-08-31T13:11:17;3.42;;;0.20;;
2548;SDS011;1284;53.520;10.248;2023-08-31T13:13:48;0.75;;;0.15;;
2548;SDS011;1284;53.520;10.248;2023-08-31T13:16:16;0.43;;;0.20;;
2548;SDS011;1284;53.520;10.248;2023-08-31T13:18:42;0.20;;;0.15;;
2548;SDS011;1284;53.520;10.248;2023-08-31T13:21:07;0.38;;;0.10;;
2548;SDS011;1284;53.520;10.248;2023-08-31T13:23:32;0.22;;;0.20;;
2548;SDS011;1284;53.520;10.248;2023-08-31T13:25:58;0.30;;;0.10;;
2548;SDS011;1284;53.520;10.248;2023-08-31T13:28:23;0.10;;;0.05;;
2548;SDS011;1284;53.520;10.248;2023-08-31T13:30:49;0.80;;;0.10;;
2548;SDS011;1284;53.520;10.248;2023-08-31T13:33:15;0.10;;;0.00;;
2548;SDS011;1284;53.520;10.248;2023-08-31T13:35:40;0.50;;;0.13;;
2548;SDS011;1284;53.520;10.248;2023-08-31T13:38:05;0.00;;;0.00;;
2548;SDS011;1284;53.520;10.248;2023-08-31T13:40:33;0.20;;;0.20;;
2548;SDS011;1284;53.520;10.248;2023-08-31T13:42:59;0.32;;;0.20;;
2548;SDS011;1284;53.520;10.248;2023-08-31T13:45:28;0.32;;;0.10;;
2548;SDS011;1284;53.520;10.248;2023-08-31T13:47:55;1.55;;;0.22;;
2548;SDS011;1284;53.520;10.248;2023-08-31T13:50:21;0.45;;;0.20;;
2548;SDS011;1284;53.520;10.248;2023-08-31T13:52:46;0.30;;;0.10;;
2548;SDS011;1284;53.520;10.248;2023-08-31T13:55:11;0.45;;;0.20;;
2548;SDS011;1284;53.520;10.248;2023-08-31T13:57:40;0.35;;;0.10;;
2548;SDS011;1284;53.520;10.248;2023-08-31T14:00:26;0.20;;;0.10;;
2548;SDS011;1284;53.520;10.248;2023-08-31T14:02:52;0.70;;;0.10;;
2548;SDS011;1284;53.520;10.248;2023-08-31T14:05:17;0.00;;;0.00;;
2548;SDS011;1284;53.520;10.248;2023-08-31T14:07:42;0.10;;;0.10;;
2548;SDS011;1284;53.520;10.248;2023-08-31T14:10:08;0.20;;;0.10;;
2548;SDS011;1284;53.520;10.248;2023-08-31T14:12:34;0.08;;;0.08;;
2548;SDS011;1284;53.520;10.248;2023-08-31T14:14:59;0.10;;;0.00;;
2548;SDS011;1284;53.520;10.248;2023-08-31T14:17:29;0.47;;;0.20;;
2548;SDS011;1284;53.520;10.248;2023-08-31T14:19:54;0.10;;;0.00;;
2548;SDS011;1284;53.520;10.248;2023-08-31T14:22:20;0.73;;;0.32;;
2548;SDS011;1284;53.520;10.248;2023-08-31T14:24:45;0.15;;;0.15;;
2548;SDS011;1284;53.520;10.248;2023-08-31T14:27:11;1.10;;;0.10;;
2548;SDS011;1284;53.520;10.248;2023-08-31T14:29:36;0.35;;;0.20;;
2548;SDS011;1284;53.520;10.248;2023-08-31T14:32:02;0.28;;;0.28;;
2548;SDS011;1284;53.520;10.248;2023-08-31T14:34:28;3.40;;;0.57;;
2548;SDS011;1284;53.520;10.248;2023-08-31T14:36:53;0.05;;;0.00;;
2548;SDS011;1284;53.520;10.248;2023-08-31T14:39:22;0.10;;;0.10;;
2548;SDS011;1284;53.520;10.248;2023-08-31T14:41:50;0.20;;;0.10;;
2548;SDS011;1284;53.520;10.248;2023-08-31T14:44:15;0.03;;;0.00;;
2548;SDS011;1284;53.520;10.248;2023-08-31T14:46:40;0.98;;;0.20;;
2548;SDS011;1284;53.520;10.248;2023-08-31T14:49:06;0.15;;;0.13;;
2548;SDS011;1284;53.520;10.248;2023-08-31T14:51:31;0.32;;;0.20;;
2548;SDS011;1284;53.520;10.248;2023-08-31T14:53:58;0.20;;;0.10;;
2548;SDS011;1284;53.520;10.248;2023-08-31T14:56:23;1.35;;;0.43;;
2548;SDS011;1284;53.520;10.248;2023-08-31T14:58:49;0.75;;;0.40;;
2548;SDS011;1284;53.520;10.248;2023-08-31T15:01:14;0.10;;;0.10;;
2548;SDS011;1284;53.520;10.248;2023-08-31T15:03:39;1.38;;;0.17;;
2548;SDS011;1284;53.520;10.248;2023-08-31T15:06:05;0.32;;;0.25;;
2548;SDS011;1284;53.520;10.248;2023-08-31T15:08:37;0.32;;;0.15;;
2548;SDS011;1284;53.520;10.248;2023-08-31T15:11:04;0.55;;;0.32;;
2548;SDS011;1284;53.520;10.248;2023-08-31T15:13:30;0.80;;;0.22;;
2548;SDS011;1284;53.520;10.248;2023-08-31T15:15:56;0.10;;;0.10;;
2548;SDS011;1284;53.520;10.248;2023-08-31T15:18:21;0.75;;;0.30;;